sensor_id;sensor_type;location;lat;lon;timestamp;temperature;humidity
15113;DHT22;7657;50.140;7.076;2022-07-05T00:01:01;20.10;99.90
15113;DHT22;7657;50.140;7.076;2022-07-05T00:03:28;20.10;99.90
15113;DHT22;7657;50.140;7.076;2022-07-05T00:05:56;20.20;99.90
15113;DHT22;7657;50.140;7.076;2022-07-05T00:08:23;20.10;99.90
15113;DHT22;7657;50.140;7.076;2022-07-05T00:10:51;20.00;99.90
15113;DHT22;7657;50.140;7.076;2022-07-05T00:13:18;20.00;99.90
15113;DHT22;7657;50.140;7.076;2022-07-05T00:15:45;20.00;99.90
15113;DHT22;7657;50.140;7.076;2022-07-05T00:18:13;20.00;99.90
15113;DHT22;7657;50.140;7.076;2022-07-05T00:20:40;20.00;99.90
15113;DHT22;7657;50.140;7.076;2022-07-05T00:23:07;20.00;99.90
15113;DHT22;7657;50.140;7.076;2022-07-05T00:25:34;20.00;99.90
15113;DHT22;7657;50.140;7.076;2022-07-05T00:28:01;20.00;99.90
15113;DHT22;7657;50.140;7.076;2022-07-05T00:30:29;20.00;99.90
15113;DHT22;7657;50.140;7.076;2022-07-05T00:32:56;19.90;99.90
15113;DHT22;7657;50.140;7.076;2022-07-05T00:35:24;19.90;99.90
15113;DHT22;7657;50.140;7.076;2022-07-05T00:37:51;19.80;99.90
15113;DHT22;7657;50.140;7.076;2022-07-05T00:40:18;19.80;99.90
15113;DHT22;7657;50.140;7.076;2022-07-05T00:42:45;19.80;99.90
15113;DHT22;7657;50.140;7.076;2022-07-05T00:45:12;19.90;99.90
15113;DHT22;7657;50.140;7.076;2022-07-05T00:47:39;19.90;99.90
15113;DHT22;7657;50.140;7.076;2022-07-05T00:50:07;19.80;99.90
15113;DHT22;7657;50.140;7.076;2022-07-05T00:52:36;19.60;99.90
15113;DHT22;7657;50.140;7.076;2022-07-05T00:55:03;19.60;99.90
15113;DHT22;7657;50.140;7.076;2022-07-05T00:57:31;19.60;99.90
15113;DHT22;7657;50.140;7.076;2022-07-05T00:59:59;19.70;99.90
15113;DHT22;7657;50.140;7.076;2022-07-05T01:02:26;19.80;99.90
15113;DHT22;7657;50.140;7.076;2022-07-05T01:04:53;19.80;99.90
15113;DHT22;7657;50.140;7.076;2022-07-05T01:07:21;19.40;99.90
15113;DHT22;7657;50.140;7.076;2022-07-05T01:09:50;19.20;99.90
15113;DHT22;7657;50.140;7.076;2022-07-05T01:12:17;19.00;99.90
15113;DHT22;7657;50.140;7.076;2022-07-05T01:14:45;18.70;99.90
15113;DHT22;7657;50.140;7.076;2022-07-05T01:17:12;18.60;99.90
15113;DHT22;7657;50.140;7.076;2022-07-05T01:19:39;18.40;99.90
15113;DHT22;7657;50.140;7.076;2022-07-05T01:22:15;18.30;99.90
15113;DHT22;7657;50.140;7.076;2022-07-05T01:24:45;18.30;99.90
15113;DHT22;7657;50.140;7.076;2022-07-05T01:27:12;18.20;99.90
15113;DHT22;7657;50.140;7.076;2022-07-05T01:29:41;18.20;99.90
15113;DHT22;7657;50.140;7.076;2022-07-05T01:32:08;18.30;99.90
15113;DHT22;7657;50.140;7.076;2022-07-05T01:34:37;18.40;99.90
15113;DHT22;7657;50.140;7.076;2022-07-05T01:37:04;18.50;99.90
15113;DHT22;7657;50.140;7.076;2022-07-05T01:39:32;18.80;99.90
15113;DHT22;7657;50.140;7.076;2022-07-05T01:42:01;18.90;99.90
15113;DHT22;7657;50.140;7.076;2022-07-05T01:44:28;19.00;99.90
15113;DHT22;7657;50.140;7.076;2022-07-05T01:47:02;19.10;99.90
15113;DHT22;7657;50.140;7.076;2022-07-05T01:49:34;19.10;99.90
15113;DHT22;7657;50.140;7.076;2022-07-05T01:52:07;19.10;99.90
15113;DHT22;7657;50.140;7.076;2022-07-05T01:54:35;19.10;99.90
15113;DHT22;7657;50.140;7.076;2022-07-05T01:57:04;19.10;99.90
15113;DHT22;7657;50.140;7.076;2022-07-05T01:59:32;19.10;99.90
15113;DHT22;7657;50.140;7.076;2022-07-05T02:01:59;19.20;99.90
15113;DHT22;7657;50.140;7.076;2022-07-05T02:04:27;19.20;99.90
15113;DHT22;7657;50.140;7.076;2022-07-05T02:06:54;19.00;99.90
15113;DHT22;7657;50.140;7.076;2022-07-05T02:09:21;18.70;99.90
15113;DHT22;7657;50.140;7.076;2022-07-05T02:11:48;18.50;99.90
15113;DHT22;7657;50.140;7.076;2022-07-05T02:14:17;18.20;99.90
15113;DHT22;7657;50.140;7.076;2022-07-05T02:16:44;18.10;99.90
15113;DHT22;7657;50.140;7.076;2022-07-05T02:19:11;18.10;99.90
15113;DHT22;7657;50.140;7.076;2022-07-05T02:21:38;18.20;99.90
15113;DHT22;7657;50.140;7.076;2022-07-05T02:24:06;18.10;99.90
15113;DHT22;7657;50.140;7.076;2022-07-05T02:26:33;18.00;99.90
15113;DHT22;7657;50.140;7.076;2022-07-05T02:29:01;17.90;99.90
15113;DHT22;7657;50.140;7.076;2022-07-05T02:31:29;17.80;99.90
15113;DHT22;7657;50.140;7.076;2022-07-05T02:33:57;17.80;99.90
15113;DHT22;7657;50.140;7.076;2022-07-05T02:36:24;18.10;99.90
15113;DHT22;7657;50.140;7.076;2022-07-05T02:38:51;18.30;99.90
15113;DHT22;7657;50.140;7.076;2022-07-05T02:41:18;18.30;99.90
15113;DHT22;7657;50.140;7.076;2022-07-05T02:43:45;18.40;99.90
15113;DHT22;7657;50.140;7.076;2022-07-05T02:46:12;18.60;99.90
15113;DHT22;7657;50.140;7.076;2022-07-05T02:48:40;18.70;99.90
15113;DHT22;7657;50.140;7.076;2022-07-05T02:51:07;18.70;99.90
15113;DHT22;7657;50.140;7.076;2022-07-05T02:53:34;18.80;99.90
15113;DHT22;7657;50.140;7.076;2022-07-05T02:56:01;18.90;99.90
15113;DHT22;7657;50.140;7.076;2022-07-05T02:58:28;18.80;99.90
15113;DHT22;7657;50.140;7.076;2022-07-05T03:00:55;18.90;99.90
15113;DHT22;7657;50.140;7.076;2022-07-05T03:03:22;18.90;99.90
15113;DHT22;7657;50.140;7.076;2022-07-05T03:05:51;18.90;99.90
15113;DHT22;7657;50.140;7.076;2022-07-05T03:08:18;18.70;99.90
15113;DHT22;7657;50.140;7.076;2022-07-05T03:10:45;18.70;99.90
15113;DHT22;7657;50.140;7.076;2022-07-05T03:13:12;18.70;99.90
15113;DHT22;7657;50.140;7.076;2022-07-05T03:15:39;18.60;99.90
15113;DHT22;7657;50.140;7.076;2022-07-05T03:18:06;18.40;99.90
15113;DHT22;7657;50.140;7.076;2022-07-05T03:20:33;18.20;99.90
15113;DHT22;7657;50.140;7.076;2022-07-05T03:23:01;18.40;99.90
15113;DHT22;7657;50.140;7.076;2022-07-05T03:25:28;18.50;99.90
15113;DHT22;7657;50.140;7.076;2022-07-05T03:27:55;18.60;99.90
15113;DHT22;7657;50.140;7.076;2022-07-05T03:30:22;18.60;99.90
15113;DHT22;7657;50.140;7.076;2022-07-05T03:32:49;18.70;99.90
15113;DHT22;7657;50.140;7.076;2022-07-05T03:35:16;18.70;99.90
15113;DHT22;7657;50.140;7.076;2022-07-05T03:37:43;18.70;99.90
15113;DHT22;7657;50.140;7.076;2022-07-05T03:40:12;18.70;99.90
15113;DHT22;7657;50.140;7.076;2022-07-05T03:42:39;18.70;99.90
15113;DHT22;7657;50.140;7.076;2022-07-05T03:45:06;18.70;99.90
15113;DHT22;7657;50.140;7.076;2022-07-05T03:47:33;18.70;99.90
15113;DHT22;7657;50.140;7.076;2022-07-05T03:50:00;18.70;99.90
15113;DHT22;7657;50.140;7.076;2022-07-05T03:52:27;18.70;99.90
15113;DHT22;7657;50.140;7.076;2022-07-05T03:54:54;18.70;99.90
15113;DHT22;7657;50.140;7.076;2022-07-05T03:57:22;18.60;99.90
15113;DHT22;7657;50.140;7.076;2022-07-05T03:59:49;18.70;99.90
15113;DHT22;7657;50.140;7.076;2022-07-05T04:02:16;18.60;99.90
15113;DHT22;7657;50.140;7.076;2022-07-05T04:04:43;18.60;99.90
15113;DHT22;7657;50.140;7.076;2022-07-05T04:07:10;18.60;99.90
15113;DHT22;7657;50.140;7.076;2022-07-05T04:09:38;18.60;99.90
15113;DHT22;7657;50.140;7.076;2022-07-05T04:12:05;18.60;99.90
15113;DHT22;7657;50.140;7.076;2022-07-05T04:14:34;18.60;99.90
15113;DHT22;7657;50.140;7.076;2022-07-05T04:17:01;18.60;99.90
15113;DHT22;7657;50.140;7.076;2022-07-05T04:19:28;18.60;99.90
15113;DHT22;7657;50.140;7.076;2022-07-05T04:21:56;18.60;99.90
15113;DHT22;7657;50.140;7.076;2022-07-05T04:24:23;18.60;99.90
15113;DHT22;7657;50.140;7.076;2022-07-05T04:26:50;18.60;99.90
15113;DHT22;7657;50.140;7.076;2022-07-05T04:29:17;18.60;99.90
15113;DHT22;7657;50.140;7.076;2022-07-05T04:31:45;18.50;99.90
15113;DHT22;7657;50.140;7.076;2022-07-05T04:34:12;18.50;99.90
15113;DHT22;7657;50.140;7.076;2022-07-05T04:36:39;18.50;99.90
15113;DHT22;7657;50.140;7.076;2022-07-05T04:39:06;18.40;99.90
15113;DHT22;7657;50.140;7.076;2022-07-05T04:41:33;18.40;99.90
15113;DHT22;7657;50.140;7.076;2022-07-05T04:44:00;18.30;99.90
15113;DHT22;7657;50.140;7.076;2022-07-05T04:46:27;18.40;99.90
15113;DHT22;7657;50.140;7.076;2022-07-05T04:48:56;18.50;99.90
15113;DHT22;7657;50.140;7.076;2022-07-05T04:51:23;18.60;99.90
15113;DHT22;7657;50.140;7.076;2022-07-05T04:53:50;18.60;99.90
15113;DHT22;7657;50.140;7.076;2022-07-05T04:56:17;18.60;99.90
15113;DHT22;7657;50.140;7.076;2022-07-05T04:58:44;18.60;99.90
15113;DHT22;7657;50.140;7.076;2022-07-05T05:01:11;18.60;99.90
15113;DHT22;7657;50.140;7.076;2022-07-05T05:03:37;18.70;99.90
15113;DHT22;7657;50.140;7.076;2022-07-05T05:06:06;18.70;99.90
15113;DHT22;7657;50.140;7.076;2022-07-05T05:08:33;18.60;99.90
15113;DHT22;7657;50.140;7.076;2022-07-05T05:11:00;18.50;99.90
15113;DHT22;7657;50.140;7.076;2022-07-05T05:13:27;18.50;99.90
15113;DHT22;7657;50.140;7.076;2022-07-05T05:15:54;18.40;99.90
15113;DHT22;7657;50.140;7.076;2022-07-05T05:18:21;18.50;99.90
15113;DHT22;7657;50.140;7.076;2022-07-05T05:20:52;18.50;99.90
15113;DHT22;7657;50.140;7.076;2022-07-05T05:23:20;18.60;99.90
15113;DHT22;7657;50.140;7.076;2022-07-05T05:25:47;18.70;99.90
15113;DHT22;7657;50.140;7.076;2022-07-05T05:28:14;18.70;99.90
15113;DHT22;7657;50.140;7.076;2022-07-05T05:30:41;18.70;99.90
15113;DHT22;7657;50.140;7.076;2022-07-05T05:33:08;18.70;99.90
15113;DHT22;7657;50.140;7.076;2022-07-05T05:35:35;18.70;99.90
15113;DHT22;7657;50.140;7.076;2022-07-05T05:38:02;18.80;99.90
15113;DHT22;7657;50.140;7.076;2022-07-05T05:40:31;18.80;99.90
15113;DHT22;7657;50.140;7.076;2022-07-05T05:42:58;18.80;99.90
15113;DHT22;7657;50.140;7.076;2022-07-05T05:45:26;18.80;99.90
15113;DHT22;7657;50.140;7.076;2022-07-05T05:47:54;18.90;99.90
15113;DHT22;7657;50.140;7.076;2022-07-05T05:50:23;18.90;99.90
15113;DHT22;7657;50.140;7.076;2022-07-05T05:52:50;18.90;99.90
15113;DHT22;7657;50.140;7.076;2022-07-05T05:55:17;18.90;99.90
15113;DHT22;7657;50.140;7.076;2022-07-05T05:57:46;18.90;99.90
15113;DHT22;7657;50.140;7.076;2022-07-05T06:00:14;18.90;99.90
15113;DHT22;7657;50.140;7.076;2022-07-05T06:02:42;18.90;99.90
15113;DHT22;7657;50.140;7.076;2022-07-05T06:05:09;19.00;99.90
15113;DHT22;7657;50.140;7.076;2022-07-05T06:07:47;19.00;99.90
15113;DHT22;7657;50.140;7.076;2022-07-05T06:10:16;19.00;99.90
15113;DHT22;7657;50.140;7.076;2022-07-05T06:12:43;19.00;99.90
15113;DHT22;7657;50.140;7.076;2022-07-05T06:15:11;19.00;99.90
15113;DHT22;7657;50.140;7.076;2022-07-05T06:17:39;19.10;99.90
15113;DHT22;7657;50.140;7.076;2022-07-05T06:20:08;19.10;99.90
15113;DHT22;7657;50.140;7.076;2022-07-05T06:22:35;19.10;99.90
15113;DHT22;7657;50.140;7.076;2022-07-05T06:25:02;19.20;99.90
15113;DHT22;7657;50.140;7.076;2022-07-05T06:27:29;19.20;99.90
15113;DHT22;7657;50.140;7.076;2022-07-05T06:29:56;19.20;99.90
15113;DHT22;7657;50.140;7.076;2022-07-05T06:32:24;19.30;99.90
15113;DHT22;7657;50.140;7.076;2022-07-05T06:34:51;19.20;99.90
15113;DHT22;7657;50.140;7.076;2022-07-05T06:37:18;19.20;99.90
15113;DHT22;7657;50.140;7.076;2022-07-05T06:39:45;19.20;99.90
15113;DHT22;7657;50.140;7.076;2022-07-05T06:42:12;19.20;99.90
15113;DHT22;7657;50.140;7.076;2022-07-05T06:44:39;19.30;99.90
15113;DHT22;7657;50.140;7.076;2022-07-05T06:47:06;19.30;99.90
15113;DHT22;7657;50.140;7.076;2022-07-05T06:49:34;19.30;99.90
15113;DHT22;7657;50.140;7.076;2022-07-05T06:52:01;19.40;99.90
15113;DHT22;7657;50.140;7.076;2022-07-05T06:54:28;19.40;99.90
15113;DHT22;7657;50.140;7.076;2022-07-05T06:56:55;19.40;99.90
15113;DHT22;7657;50.140;7.076;2022-07-05T06:59:22;19.40;99.90
15113;DHT22;7657;50.140;7.076;2022-07-05T07:01:49;19.50;99.90
15113;DHT22;7657;50.140;7.076;2022-07-05T07:04:16;19.50;99.90
15113;DHT22;7657;50.140;7.076;2022-07-05T07:06:44;19.50;99.90
15113;DHT22;7657;50.140;7.076;2022-07-05T07:09:11;19.50;99.90
15113;DHT22;7657;50.140;7.076;2022-07-05T07:11:48;19.50;99.90
15113;DHT22;7657;50.140;7.076;2022-07-05T07:14:15;19.60;99.90
15113;DHT22;7657;50.140;7.076;2022-07-05T07:16:42;19.60;99.90
15113;DHT22;7657;50.140;7.076;2022-07-05T07:19:09;19.60;99.90
15113;DHT22;7657;50.140;7.076;2022-07-05T07:21:37;19.60;99.90
15113;DHT22;7657;50.140;7.076;2022-07-05T07:24:06;19.60;99.90
15113;DHT22;7657;50.140;7.076;2022-07-05T07:26:33;19.70;99.90
15113;DHT22;7657;50.140;7.076;2022-07-05T07:29:20;19.70;99.90
15113;DHT22;7657;50.140;7.076;2022-07-05T07:31:47;19.70;99.90
15113;DHT22;7657;50.140;7.076;2022-07-05T07:34:14;19.70;99.90
15113;DHT22;7657;50.140;7.076;2022-07-05T07:36:41;19.80;99.90
15113;DHT22;7657;50.140;7.076;2022-07-05T07:39:09;19.70;99.90
15113;DHT22;7657;50.140;7.076;2022-07-05T07:41:36;19.80;99.90
15113;DHT22;7657;50.140;7.076;2022-07-05T07:44:03;19.80;99.90
15113;DHT22;7657;50.140;7.076;2022-07-05T07:46:31;19.90;99.90
15113;DHT22;7657;50.140;7.076;2022-07-05T07:48:58;19.90;99.90
15113;DHT22;7657;50.140;7.076;2022-07-05T07:51:25;19.90;99.90
15113;DHT22;7657;50.140;7.076;2022-07-05T07:53:52;19.90;99.90
15113;DHT22;7657;50.140;7.076;2022-07-05T07:56:21;19.90;99.90
15113;DHT22;7657;50.140;7.076;2022-07-05T07:58:48;19.90;99.90
15113;DHT22;7657;50.140;7.076;2022-07-05T08:01:15;20.00;99.90
15113;DHT22;7657;50.140;7.076;2022-07-05T08:03:42;20.00;99.90
15113;DHT22;7657;50.140;7.076;2022-07-05T08:06:10;20.00;99.90
15113;DHT22;7657;50.140;7.076;2022-07-05T08:08:38;20.10;99.90
15113;DHT22;7657;50.140;7.076;2022-07-05T08:11:07;20.00;99.90
15113;DHT22;7657;50.140;7.076;2022-07-05T08:13:37;19.90;99.90
15113;DHT22;7657;50.140;7.076;2022-07-05T08:16:05;20.00;99.90
15113;DHT22;7657;50.140;7.076;2022-07-05T08:18:32;20.00;99.90
15113;DHT22;7657;50.140;7.076;2022-07-05T08:21:16;20.00;99.90
15113;DHT22;7657;50.140;7.076;2022-07-05T08:24:01;20.00;99.90
15113;DHT22;7657;50.140;7.076;2022-07-05T08:26:29;20.00;99.90
15113;DHT22;7657;50.140;7.076;2022-07-05T08:28:58;20.10;99.90
15113;DHT22;7657;50.140;7.076;2022-07-05T08:31:28;20.20;99.90
15113;DHT22;7657;50.140;7.076;2022-07-05T08:33:55;20.30;99.90
15113;DHT22;7657;50.140;7.076;2022-07-05T08:36:22;20.40;99.90
15113;DHT22;7657;50.140;7.076;2022-07-05T08:38:49;20.40;99.90
15113;DHT22;7657;50.140;7.076;2022-07-05T08:41:19;20.50;99.90
15113;DHT22;7657;50.140;7.076;2022-07-05T08:43:47;20.40;99.90
15113;DHT22;7657;50.140;7.076;2022-07-05T08:46:16;20.40;99.90
15113;DHT22;7657;50.140;7.076;2022-07-05T08:48:47;20.40;99.90
15113;DHT22;7657;50.140;7.076;2022-07-05T08:51:16;20.40;99.90
15113;DHT22;7657;50.140;7.076;2022-07-05T08:53:44;20.50;99.90
15113;DHT22;7657;50.140;7.076;2022-07-05T08:56:12;20.60;99.90
15113;DHT22;7657;50.140;7.076;2022-07-05T08:58:39;20.50;99.90
15113;DHT22;7657;50.140;7.076;2022-07-05T09:01:09;20.40;99.90
15113;DHT22;7657;50.140;7.076;2022-07-05T09:03:41;20.40;99.90
15113;DHT22;7657;50.140;7.076;2022-07-05T09:06:10;20.50;99.90
15113;DHT22;7657;50.140;7.076;2022-07-05T09:08:38;20.50;99.90
15113;DHT22;7657;50.140;7.076;2022-07-05T09:11:07;20.70;99.90
15113;DHT22;7657;50.140;7.076;2022-07-05T09:13:35;20.70;99.90
15113;DHT22;7657;50.140;7.076;2022-07-05T09:16:02;20.70;99.90
15113;DHT22;7657;50.140;7.076;2022-07-05T09:18:41;20.70;99.90
15113;DHT22;7657;50.140;7.076;2022-07-05T09:21:12;20.90;99.90
15113;DHT22;7657;50.140;7.076;2022-07-05T09:23:40;20.80;99.90
15113;DHT22;7657;50.140;7.076;2022-07-05T09:26:08;20.90;99.90
15113;DHT22;7657;50.140;7.076;2022-07-05T09:28:35;20.80;99.90
15113;DHT22;7657;50.140;7.076;2022-07-05T09:31:02;20.80;99.90
15113;DHT22;7657;50.140;7.076;2022-07-05T09:33:29;20.90;99.90
15113;DHT22;7657;50.140;7.076;2022-07-05T09:35:58;21.00;99.90
15113;DHT22;7657;50.140;7.076;2022-07-05T09:38:25;21.00;99.90
15113;DHT22;7657;50.140;7.076;2022-07-05T09:40:54;21.10;99.90
15113;DHT22;7657;50.140;7.076;2022-07-05T09:43:21;21.10;99.90
15113;DHT22;7657;50.140;7.076;2022-07-05T09:45:56;21.00;99.90
15113;DHT22;7657;50.140;7.076;2022-07-05T09:48:23;21.00;99.90
15113;DHT22;7657;50.140;7.076;2022-07-05T09:50:51;21.00;99.90
15113;DHT22;7657;50.140;7.076;2022-07-05T09:53:19;21.00;99.90
15113;DHT22;7657;50.140;7.076;2022-07-05T09:56:03;21.10;99.90
15113;DHT22;7657;50.140;7.076;2022-07-05T09:58:30;21.10;99.90
15113;DHT22;7657;50.140;7.076;2022-07-05T10:00:57;21.20;99.90
15113;DHT22;7657;50.140;7.076;2022-07-05T10:03:24;21.30;99.90
15113;DHT22;7657;50.140;7.076;2022-07-05T10:05:51;21.40;99.90
15113;DHT22;7657;50.140;7.076;2022-07-05T10:08:20;21.40;99.90
15113;DHT22;7657;50.140;7.076;2022-07-05T10:10:49;21.40;99.90
15113;DHT22;7657;50.140;7.076;2022-07-05T10:13:17;21.30;99.90
15113;DHT22;7657;50.140;7.076;2022-07-05T10:15:44;21.20;99.90
15113;DHT22;7657;50.140;7.076;2022-07-05T10:18:13;21.30;99.90
15113;DHT22;7657;50.140;7.076;2022-07-05T10:20:42;21.30;99.90
15113;DHT22;7657;50.140;7.076;2022-07-05T10:23:11;21.40;99.90
15113;DHT22;7657;50.140;7.076;2022-07-05T10:25:41;21.50;99.90
15113;DHT22;7657;50.140;7.076;2022-07-05T10:28:09;21.50;99.90
15113;DHT22;7657;50.140;7.076;2022-07-05T10:30:37;21.60;99.90
15113;DHT22;7657;50.140;7.076;2022-07-05T10:33:06;21.60;99.90
15113;DHT22;7657;50.140;7.076;2022-07-05T10:35:34;21.50;99.90
15113;DHT22;7657;50.140;7.076;2022-07-05T10:38:02;21.40;99.90
15113;DHT22;7657;50.140;7.076;2022-07-05T10:40:32;21.40;99.90
15113;DHT22;7657;50.140;7.076;2022-07-05T10:43:02;21.50;99.90
15113;DHT22;7657;50.140;7.076;2022-07-05T10:45:31;21.60;99.90
15113;DHT22;7657;50.140;7.076;2022-07-05T10:48:22;21.70;99.90
15113;DHT22;7657;50.140;7.076;2022-07-05T10:50:51;21.80;99.90
15113;DHT22;7657;50.140;7.076;2022-07-05T10:53:19;21.80;99.90
15113;DHT22;7657;50.140;7.076;2022-07-05T10:55:52;21.80;99.90
15113;DHT22;7657;50.140;7.076;2022-07-05T10:58:26;21.90;99.90
15113;DHT22;7657;50.140;7.076;2022-07-05T11:03:55;22.00;99.90
15113;DHT22;7657;50.140;7.076;2022-07-05T11:06:41;22.00;99.90
15113;DHT22;7657;50.140;7.076;2022-07-05T11:09:14;22.10;99.90
15113;DHT22;7657;50.140;7.076;2022-07-05T11:11:43;22.20;99.90
15113;DHT22;7657;50.140;7.076;2022-07-05T11:14:33;22.20;99.90
15113;DHT22;7657;50.140;7.076;2022-07-05T11:17:29;22.20;99.90
15113;DHT22;7657;50.140;7.076;2022-07-05T11:20:13;22.20;99.90
15113;DHT22;7657;50.140;7.076;2022-07-05T11:22:41;22.20;99.90
15113;DHT22;7657;50.140;7.076;2022-07-05T11:25:28;22.20;99.90
15113;DHT22;7657;50.140;7.076;2022-07-05T11:28:05;22.20;99.90
15113;DHT22;7657;50.140;7.076;2022-07-05T11:33:38;22.20;99.90
15113;DHT22;7657;50.140;7.076;2022-07-05T11:36:07;22.30;99.90
15113;DHT22;7657;50.140;7.076;2022-07-05T11:41:49;22.30;99.90
15113;DHT22;7657;50.140;7.076;2022-07-05T11:44:16;22.40;99.90
15113;DHT22;7657;50.140;7.076;2022-07-05T11:46:45;22.50;99.90
15113;DHT22;7657;50.140;7.076;2022-07-05T11:49:13;22.60;99.90
15113;DHT22;7657;50.140;7.076;2022-07-05T11:51:53;22.70;99.90
15113;DHT22;7657;50.140;7.076;2022-07-05T11:54:22;22.70;99.90
15113;DHT22;7657;50.140;7.076;2022-07-05T11:56:49;22.80;99.90
15113;DHT22;7657;50.140;7.076;2022-07-05T11:59:18;22.90;99.90
15113;DHT22;7657;50.140;7.076;2022-07-05T12:01:46;22.90;99.90
15113;DHT22;7657;50.140;7.076;2022-07-05T12:04:21;23.00;99.90
15113;DHT22;7657;50.140;7.076;2022-07-05T12:06:47;23.00;99.90
15113;DHT22;7657;50.140;7.076;2022-07-05T12:09:19;23.00;99.90
15113;DHT22;7657;50.140;7.076;2022-07-05T12:11:49;23.10;98.90
15113;DHT22;7657;50.140;7.076;2022-07-05T12:14:34;23.10;99.90
15113;DHT22;7657;50.140;7.076;2022-07-05T12:17:12;23.00;99.10
15113;DHT22;7657;50.140;7.076;2022-07-05T12:19:39;23.00;99.40
15113;DHT22;7657;50.140;7.076;2022-07-05T12:22:06;22.90;99.70
15113;DHT22;7657;50.140;7.076;2022-07-05T12:24:34;22.90;99.90
15113;DHT22;7657;50.140;7.076;2022-07-05T12:27:01;23.00;98.10
15113;DHT22;7657;50.140;7.076;2022-07-05T12:29:29;23.10;99.00
15113;DHT22;7657;50.140;7.076;2022-07-05T12:32:00;23.20;98.00
15113;DHT22;7657;50.140;7.076;2022-07-05T12:34:29;23.20;98.40
15113;DHT22;7657;50.140;7.076;2022-07-05T12:36:56;23.30;98.30
15113;DHT22;7657;50.140;7.076;2022-07-05T12:39:24;23.40;98.20
15113;DHT22;7657;50.140;7.076;2022-07-05T12:41:51;23.50;97.60
15113;DHT22;7657;50.140;7.076;2022-07-05T12:44:19;23.50;97.60
15113;DHT22;7657;50.140;7.076;2022-07-05T12:46:47;23.60;97.20
15113;DHT22;7657;50.140;7.076;2022-07-05T12:49:16;23.80;98.00
15113;DHT22;7657;50.140;7.076;2022-07-05T12:51:45;23.90;98.20
15113;DHT22;7657;50.140;7.076;2022-07-05T12:54:20;24.20;97.50
15113;DHT22;7657;50.140;7.076;2022-07-05T12:57:05;24.40;97.20
15113;DHT22;7657;50.140;7.076;2022-07-05T13:00:00;24.70;98.30
15113;DHT22;7657;50.140;7.076;2022-07-05T13:02:34;24.80;95.70
15113;DHT22;7657;50.140;7.076;2022-07-05T13:05:01;25.00;95.90
15113;DHT22;7657;50.140;7.076;2022-07-05T13:07:30;25.30;96.40
15113;DHT22;7657;50.140;7.076;2022-07-05T13:10:13;25.50;94.20
15113;DHT22;7657;50.140;7.076;2022-07-05T13:12:40;25.70;92.70
15113;DHT22;7657;50.140;7.076;2022-07-05T13:15:08;25.80;92.30
15113;DHT22;7657;50.140;7.076;2022-07-05T13:17:35;26.00;92.50
15113;DHT22;7657;50.140;7.076;2022-07-05T13:20:03;26.20;92.40
15113;DHT22;7657;50.140;7.076;2022-07-05T13:22:31;26.40;93.40
15113;DHT22;7657;50.140;7.076;2022-07-05T13:24:58;26.50;91.00
15113;DHT22;7657;50.140;7.076;2022-07-05T13:27:25;26.60;90.90
15113;DHT22;7657;50.140;7.076;2022-07-05T13:29:52;26.70;91.20
15113;DHT22;7657;50.140;7.076;2022-07-05T13:32:19;26.90;91.00
15113;DHT22;7657;50.140;7.076;2022-07-05T13:34:47;26.90;88.00
15113;DHT22;7657;50.140;7.076;2022-07-05T13:37:16;27.00;87.40
15113;DHT22;7657;50.140;7.076;2022-07-05T13:39:44;27.10;87.70
15113;DHT22;7657;50.140;7.076;2022-07-05T13:42:11;27.10;86.40
15113;DHT22;7657;50.140;7.076;2022-07-05T13:44:38;27.40;86.40
15113;DHT22;7657;50.140;7.076;2022-07-05T13:47:05;27.20;85.70
15113;DHT22;7657;50.140;7.076;2022-07-05T13:49:32;27.40;84.40
15113;DHT22;7657;50.140;7.076;2022-07-05T13:51:59;27.50;83.70
15113;DHT22;7657;50.140;7.076;2022-07-05T13:54:27;27.30;82.20
15113;DHT22;7657;50.140;7.076;2022-07-05T13:56:56;27.10;82.60
15113;DHT22;7657;50.140;7.076;2022-07-05T13:59:23;27.20;82.80
15113;DHT22;7657;50.140;7.076;2022-07-05T14:01:50;27.50;82.60
15113;DHT22;7657;50.140;7.076;2022-07-05T14:04:17;28.00;85.00
15113;DHT22;7657;50.140;7.076;2022-07-05T14:06:44;27.80;82.00
15113;DHT22;7657;50.140;7.076;2022-07-05T14:09:11;28.00;81.40
15113;DHT22;7657;50.140;7.076;2022-07-05T14:11:38;28.00;81.80
15113;DHT22;7657;50.140;7.076;2022-07-05T14:14:06;28.00;80.50
15113;DHT22;7657;50.140;7.076;2022-07-05T14:16:35;27.70;78.60
15113;DHT22;7657;50.140;7.076;2022-07-05T14:19:02;27.20;80.00
15113;DHT22;7657;50.140;7.076;2022-07-05T14:21:29;27.00;78.70
15113;DHT22;7657;50.140;7.076;2022-07-05T14:23:56;26.80;79.80
15113;DHT22;7657;50.140;7.076;2022-07-05T14:26:23;26.60;80.30
15113;DHT22;7657;50.140;7.076;2022-07-05T14:28:53;26.80;82.20
15113;DHT22;7657;50.140;7.076;2022-07-05T14:31:21;27.20;79.60
15113;DHT22;7657;50.140;7.076;2022-07-05T14:33:49;27.70;80.80
15113;DHT22;7657;50.140;7.076;2022-07-05T14:36:16;28.10;79.90
15113;DHT22;7657;50.140;7.076;2022-07-05T14:38:45;28.30;77.30
15113;DHT22;7657;50.140;7.076;2022-07-05T14:41:13;28.60;78.60
15113;DHT22;7657;50.140;7.076;2022-07-05T14:43:41;28.70;77.60
15113;DHT22;7657;50.140;7.076;2022-07-05T14:46:09;28.90;77.70
15113;DHT22;7657;50.140;7.076;2022-07-05T14:48:40;28.80;74.80
15113;DHT22;7657;50.140;7.076;2022-07-05T14:51:07;28.60;75.50
15113;DHT22;7657;50.140;7.076;2022-07-05T14:53:33;28.70;75.60
15113;DHT22;7657;50.140;7.076;2022-07-05T14:56:01;28.60;74.30
15113;DHT22;7657;50.140;7.076;2022-07-05T14:58:28;28.60;74.20
15113;DHT22;7657;50.140;7.076;2022-07-05T15:00:57;28.70;74.80
15113;DHT22;7657;50.140;7.076;2022-07-05T15:03:24;29.00;73.90
15113;DHT22;7657;50.140;7.076;2022-07-05T15:05:53;29.20;74.70
15113;DHT22;7657;50.140;7.076;2022-07-05T15:08:20;29.50;73.00
15113;DHT22;7657;50.140;7.076;2022-07-05T15:10:48;29.70;72.60
15113;DHT22;7657;50.140;7.076;2022-07-05T15:13:17;30.00;73.80
15113;DHT22;7657;50.140;7.076;2022-07-05T15:15:44;30.50;72.80
15113;DHT22;7657;50.140;7.076;2022-07-05T15:18:11;30.80;71.90
15113;DHT22;7657;50.140;7.076;2022-07-05T15:20:38;30.50;69.80
15113;DHT22;7657;50.140;7.076;2022-07-05T15:23:06;30.30;71.00
15113;DHT22;7657;50.140;7.076;2022-07-05T15:25:33;30.60;70.10
15113;DHT22;7657;50.140;7.076;2022-07-05T15:28:00;30.60;70.40
15113;DHT22;7657;50.140;7.076;2022-07-05T15:30:27;30.80;69.90
15113;DHT22;7657;50.140;7.076;2022-07-05T15:32:53;30.60;68.90
15113;DHT22;7657;50.140;7.076;2022-07-05T15:35:20;30.50;69.00
15113;DHT22;7657;50.140;7.076;2022-07-05T15:37:47;30.60;69.00
15113;DHT22;7657;50.140;7.076;2022-07-05T15:40:16;30.50;68.10
15113;DHT22;7657;50.140;7.076;2022-07-05T15:42:42;30.40;68.30
15113;DHT22;7657;50.140;7.076;2022-07-05T15:45:10;30.10;70.40
15113;DHT22;7657;50.140;7.076;2022-07-05T15:47:37;30.00;68.00
15113;DHT22;7657;50.140;7.076;2022-07-05T15:50:06;30.30;68.00
15113;DHT22;7657;50.140;7.076;2022-07-05T15:52:35;30.50;66.50
15113;DHT22;7657;50.140;7.076;2022-07-05T15:55:02;30.50;67.00
15113;DHT22;7657;50.140;7.076;2022-07-05T15:57:31;30.70;67.90
15113;DHT22;7657;50.140;7.076;2022-07-05T15:59:58;30.70;67.80
15113;DHT22;7657;50.140;7.076;2022-07-05T16:02:25;30.30;66.40